Time;durP1;ratioP1;P1;durP2;ratioP2;P2;SDS_P1;SDS_P2;PMS_P1;PMS_P2;Temp;Humidity;BMP_temperature;BMP_pressure;BME280_temperature;BME280_humidity;BME280_pressure;Samples;Min_cycle;Max_cycle;Signal;HPM_P1;HPM_P2
2022/07/23 00:01:59;;;;;;;1999.90;999.90;;;18.00;99.90;;;;;;5071418;28;20067;-82
2022/07/23 00:04:25;;;;;;;1999.90;999.90;;;18.20;99.90;;;;;;5100089;28;20032;-83
2022/07/23 00:06:50;;;;;;;1999.90;999.90;;;18.10;99.90;;;;;;5100329;28;20691;-83
2022/07/23 00:09:16;;;;;;;1999.90;999.90;;;18.10;99.90;;;;;;5080694;28;20028;-84
2022/07/23 00:11:41;;;;;;;1999.90;999.90;;;18.30;99.90;;;;;;5079171;28;20796;-83
2022/07/23 00:14:07;;;;;;;1999.90;999.90;;;18.10;99.90;;;;;;5075347;28;20513;-83
2022/07/23 00:16:33;;;;;;;1999.90;999.90;;;18.00;99.90;;;;;;5094357;28;20498;-83
2022/07/23 00:19:01;;;;;;;1999.90;999.90;;;18.00;99.90;;;;;;5091674;28;20055;-83
2022/07/23 00:21:27;;;;;;;1999.90;999.90;;;17.80;99.90;;;;;;5090890;28;20021;-83
2022/07/23 00:23:52;;;;;;;1999.90;999.90;;;17.70;99.90;;;;;;5090389;28;20016;-83
2022/07/23 00:26:18;;;;;;;1999.90;999.90;;;17.90;99.90;;;;;;5091256;28;20513;-83
2022/07/23 00:28:44;;;;;;;1999.90;999.90;;;18.00;99.90;;;;;;5091500;28;20127;-82
2022/07/23 00:31:09;;;;;;;1999.90;999.90;;;18.00;99.90;;;;;;5102485;28;20055;-85
2022/07/23 00:33:35;;;;;;;1999.90;999.90;;;17.90;99.90;;;;;;5100108;28;20034;-83
2022/07/23 00:36:01;;;;;;;1999.90;999.90;;;17.80;99.90;;;;;;5101268;28;20024;-82
2022/07/23 00:38:26;;;;;;;1999.90;999.90;;;17.90;99.90;;;;;;5087375;28;20483;-83
2022/07/23 00:40:52;;;;;;;1999.90;999.90;;;17.80;99.90;;;;;;5097948;28;20522;-83
2022/07/23 00:43:21;;;;;;;1999.90;999.90;;;17.70;99.90;;;;;;5087801;28;20522;-89
2022/07/23 00:45:46;;;;;;;1999.90;999.90;;;17.70;99.90;;;;;;5089867;28;20486;-83
2022/07/23 00:48:12;;;;;;;1999.90;999.90;;;17.60;99.90;;;;;;5091881;28;20035;-83
2022/07/23 00:50:37;;;;;;;1999.90;999.90;;;17.50;99.90;;;;;;5092661;28;20107;-83
2022/07/23 00:53:04;;;;;;;1999.90;999.90;;;17.60;99.90;;;;;;5090128;28;20123;-83
2022/07/23 00:55:30;;;;;;;1999.90;999.90;;;17.70;99.90;;;;;;5088590;28;20031;-84
2022/07/23 00:57:57;;;;;;;1999.90;999.90;;;17.60;99.90;;;;;;5083638;28;20462;-83
2022/07/23 01:00:22;;;;;;;1999.90;999.90;;;17.70;99.90;;;;;;5101923;28;20040;-83
2022/07/23 01:02:48;;;;;;;1999.90;999.90;;;17.70;99.90;;;;;;5098570;28;20505;-83
2022/07/23 01:05:14;;;;;;;1999.90;999.90;;;17.60;99.90;;;;;;5099703;28;20609;-83
2022/07/23 01:07:40;;;;;;;1999.90;999.90;;;17.50;99.90;;;;;;5098545;28;20104;-86
2022/07/23 01:10:30;;;;;;;1999.90;999.90;;;17.50;99.90;;;;;;5095418;28;20048;-83
2022/07/23 01:12:52;;;;;;;1999.90;999.90;;;17.60;99.90;;;;;;5087355;28;20097;-83
2022/07/23 01:15:18;;;;;;;1999.90;999.90;;;17.50;99.90;;;;;;5086994;28;20044;-83
2022/07/23 01:17:43;;;;;;;1999.90;999.90;;;17.50;99.90;;;;;;5094188;28;20032;-84
2022/07/23 01:20:09;;;;;;;1999.90;999.90;;;17.40;99.90;;;;;;5090266;28;20036;-83
2022/07/23 01:22:35;;;;;;;1999.90;999.90;;;17.50;99.90;;;;;;5090410;28;20035;-83
2022/07/23 01:25:01;;;;;;;1999.90;999.90;;;17.60;99.90;;;;;;5088419;28;20028;-83
2022/07/23 01:27:26;;;;;;;1999.90;999.90;;;17.60;99.90;;;;;;5073437;28;20075;-88
2022/07/23 01:29:56;;;;;;;1999.90;999.90;;;17.60;99.90;;;;;;5080343;28;20411;-84
2022/07/23 01:32:22;;;;;;;1999.90;999.90;;;17.60;99.90;;;;;;5099917;28;20020;-83
2022/07/23 01:34:47;;;;;;;1999.90;999.90;;;17.50;99.90;;;;;;5082347;28;20372;-83
2022/07/23 01:37:13;;;;;;;1999.90;999.90;;;17.60;99.90;;;;;;5098843;28;20036;-83
2022/07/23 01:39:39;;;;;;;1999.90;999.90;;;17.60;99.90;;;;;;5099596;28;20051;-83
2022/07/23 01:42:05;;;;;;;1999.90;999.90;;;17.50;99.90;;;;;;5095220;28;20080;-84
2022/07/23 01:44:31;;;;;;;1999.90;999.90;;;17.40;99.90;;;;;;5080389;28;20032;-83
2022/07/23 01:46:56;;;;;;;1999.90;999.90;;;17.40;99.90;;;;;;5095597;28;20753;-83
2022/07/23 01:49:22;;;;;;;1999.90;999.90;;;17.50;99.90;;;;;;5092760;28;20047;-80
2022/07/23 01:52:00;;;;;;;1999.90;999.90;;;17.30;99.90;;;;;;5088823;28;20020;-83
2022/07/23 01:54:30;;;;;;;1999.90;999.90;;;17.30;99.90;;;;;;5089403;28;20038;-81
2022/07/23 01:56:57;;;;;;;1999.90;999.90;;;17.20;99.90;;;;;;5084734;28;20487;-81
2022/07/23 01:59:23;;;;;;;1999.90;999.90;;;17.10;99.90;;;;;;5099714;28;20106;-81
2022/07/23 02:01:52;;;;;;;1999.90;999.90;;;17.10;99.90;;;;;;5097822;28;20035;-83
2022/07/23 02:04:18;;;;;;;1999.90;999.90;;;17.10;99.90;;;;;;5079007;28;20706;-82
2022/07/23 02:06:44;;;;;;;1999.90;999.90;;;17.10;99.90;;;;;;5100657;28;20111;-81
2022/07/23 02:09:10;;;;;;;1999.90;999.90;;;17.00;99.90;;;;;;5087278;28;20164;-82
2022/07/23 02:11:36;;;;;;;1999.90;999.90;;;17.00;99.90;;;;;;5100762;28;20451;-82
2022/07/23 02:14:02;;;;;;;1999.90;999.90;;;17.00;99.90;;;;;;5094854;28;20185;-83
2022/07/23 02:16:28;;;;;;;1999.90;999.90;;;17.00;99.90;;;;;;5086336;28;20632;-82
2022/07/23 02:18:53;;;;;;;1999.90;999.90;;;17.00;99.90;;;;;;5084024;28;20036;-81
2022/07/23 02:21:19;;;;;;;1999.90;999.90;;;17.00;99.90;;;;;;5092712;28;20032;-82
2022/07/23 02:23:45;;;;;;;1999.90;999.90;;;16.90;99.90;;;;;;5095352;28;20441;-82
2022/07/23 02:26:10;;;;;;;1999.90;999.90;;;16.80;99.90;;;;;;5093976;28;20032;-82
2022/07/23 02:28:36;;;;;;;1999.90;999.90;;;16.80;99.90;;;;;;5074305;28;20532;-82
2022/07/23 02:31:02;;;;;;;1999.90;999.90;;;16.80;99.90;;;;;;5091975;28;20048;-83
2022/07/23 02:33:27;;;;;;;1999.90;999.90;;;16.80;99.90;;;;;;5097998;28;20028;-82
2022/07/23 02:35:53;;;;;;;1999.90;999.90;;;16.60;99.90;;;;;;5104143;28;20024;-82
2022/07/23 02:38:19;;;;;;;1999.90;999.90;;;16.50;99.90;;;;;;5095738;28;20116;-83
2022/07/23 02:40:44;;;;;;;1999.90;999.90;;;16.60;99.90;;;;;;5096126;28;20039;-82
2022/07/23 02:43:10;;;;;;;1999.90;999.90;;;16.60;99.90;;;;;;5094940;28;20032;-81
2022/07/23 02:45:35;;;;;;;1999.90;999.90;;;16.50;99.90;;;;;;5089495;28;20043;-82
2022/07/23 02:48:01;;;;;;;1999.90;999.90;;;16.60;99.90;;;;;;5090305;28;20139;-82
2022/07/23 02:50:27;;;;;;;1999.90;999.90;;;16.60;99.90;;;;;;5092432;28;20483;-82
2022/07/23 02:52:52;;;;;;;1999.90;999.90;;;16.70;99.90;;;;;;5089417;28;20032;-82
2022/07/23 02:55:18;;;;;;;1999.90;999.90;;;16.70;99.90;;;;;;5070090;28;20154;-82
2022/07/23 02:57:44;;;;;;;1999.90;999.90;;;16.70;99.90;;;;;;5096069;28;20653;-82
2022/07/23 03:00:10;;;;;;;1999.90;999.90;;;16.70;99.90;;;;;;5103249;28;20043;-87
2022/07/23 03:02:36;;;;;;;1999.90;999.90;;;16.70;99.90;;;;;;5077348;28;20123;-82
2022/07/23 03:05:01;;;;;;;1999.90;999.90;;;16.80;99.90;;;;;;5100071;28;20110;-82
2022/07/23 03:07:27;;;;;;;1999.90;999.90;;;16.70;99.90;;;;;;5090534;28;20036;-82
2022/07/23 03:09:52;;;;;;;1999.90;999.90;;;16.50;99.90;;;;;;5099527;28;20039;-82
2022/07/23 03:12:18;;;;;;;1999.90;999.90;;;16.40;99.90;;;;;;5093004;28;20031;-84
2022/07/23 03:14:44;;;;;;;1999.90;999.90;;;16.40;99.90;;;;;;5092466;28;20512;-83
2022/07/23 03:17:09;;;;;;;1999.90;999.90;;;16.40;99.90;;;;;;5095126;28;20036;-83
2022/07/23 03:19:37;;;;;;;1999.90;999.90;;;16.20;99.90;;;;;;5093266;28;20028;-82
2022/07/23 03:22:03;;;;;;;1999.90;999.90;;;16.30;99.90;;;;;;5093695;28;20757;-82
2022/07/23 03:25:13;;;;;;;1999.90;999.90;;;16.40;99.90;;;;;;5090318;28;20032;-83
2022/07/23 03:27:14;;;;;;;1999.90;999.90;;;16.50;99.90;;;;;;5078172;28;20039;-82
2022/07/23 03:29:40;;;;;;;1999.90;999.90;;;16.30;99.90;;;;;;5104391;28;20035;-81
2022/07/23 03:32:06;;;;;;;1999.90;999.90;;;16.40;99.90;;;;;;5097236;28;20440;-87
2022/07/23 03:34:32;;;;;;;1999.90;999.90;;;16.50;99.90;;;;;;5103083;28;20020;-82
2022/07/23 03:36:57;;;;;;;1999.90;999.90;;;16.40;99.90;;;;;;5100081;28;20376;-82
2022/07/23 03:39:23;;;;;;;1999.90;999.90;;;16.40;99.90;;;;;;5091309;28;20582;-82
2022/07/23 03:41:49;;;;;;;1999.90;999.90;;;16.50;99.90;;;;;;5075811;28;20135;-82
2022/07/23 03:44:14;;;;;;;1999.90;999.90;;;16.40;99.90;;;;;;5093255;28;20461;-82
2022/07/23 03:46:40;;;;;;;1999.90;999.90;;;16.40;99.90;;;;;;5094843;28;20555;-83
2022/07/23 03:49:05;;;;;;;1999.90;999.90;;;16.40;99.90;;;;;;5097222;28;20045;-82
2022/07/23 03:51:32;;;;;;;1999.90;999.90;;;16.40;99.90;;;;;;5096088;28;20032;-83
2022/07/23 03:53:58;;;;;;;1999.90;999.90;;;16.50;99.90;;;;;;5085473;28;20032;-83
2022/07/23 03:56:24;;;;;;;1999.90;999.90;;;16.50;99.90;;;;;;5089229;28;20463;-83
2022/07/23 03:58:49;;;;;;;1999.90;999.90;;;16.40;99.90;;;;;;5083934;28;20048;-83
2022/07/23 04:01:15;;;;;;;1999.90;999.90;;;16.30;99.90;;;;;;5104390;28;20435;-83
2022/07/23 04:03:41;;;;;;;1999.90;999.90;;;16.30;99.90;;;;;;5083450;28;20119;-83
2022/07/23 04:06:07;;;;;;;1999.90;999.90;;;16.30;99.90;;;;;;5100745;28;20035;-83
2022/07/23 04:08:32;;;;;;;1999.90;999.90;;;16.20;99.90;;;;;;5096728;28;20081;-83
2022/07/23 04:10:58;;;;;;;1999.90;999.90;;;16.30;99.90;;;;;;5079884;28;20032;-85
2022/07/23 04:13:24;;;;;;;1999.90;999.90;;;16.40;99.90;;;;;;5089207;28;20028;-83
2022/07/23 04:15:50;;;;;;;1999.90;999.90;;;16.40;99.90;;;;;;5090852;28;20064;-82
2022/07/23 04:18:17;;;;;;;1999.90;999.90;;;16.30;99.90;;;;;;5091980;28;20032;-84
2022/07/23 04:20:43;;;;;;;1999.90;999.90;;;16.30;99.90;;;;;;5087624;28;20023;-83
2022/07/23 04:23:09;;;;;;;1999.90;999.90;;;16.30;99.90;;;;;;5072098;28;20024;-84
2022/07/23 04:25:35;;;;;;;1999.90;999.90;;;16.20;99.90;;;;;;5087117;28;20093;-83
2022/07/23 04:28:01;;;;;;;1999.90;999.90;;;16.20;99.90;;;;;;5095105;28;20486;-83
2022/07/23 04:30:27;;;;;;;1999.90;999.90;;;16.20;99.90;;;;;;5082911;28;20036;-84
2022/07/23 04:32:52;;;;;;;1999.90;999.90;;;16.10;99.90;;;;;;5091781;28;20028;-83
2022/07/23 04:35:18;;;;;;;1999.90;999.90;;;16.10;99.90;;;;;;5094128;28;20036;-84
2022/07/23 04:37:44;;;;;;;1999.90;999.90;;;16.20;99.90;;;;;;5093546;28;20031;-83
2022/07/23 04:40:11;;;;;;;1999.90;999.90;;;16.20;99.90;;;;;;5092230;28;20051;-83
2022/07/23 04:42:36;;;;;;;1999.90;999.90;;;16.30;99.90;;;;;;5074879;28;20057;-83
2022/07/23 04:45:03;;;;;;;1999.90;999.90;;;16.20;99.90;;;;;;5090198;28;20720;-86
2022/07/23 04:47:30;;;;;;;1999.90;999.90;;;16.20;99.90;;;;;;5093921;28;20093;-83
2022/07/23 04:49:56;;;;;;;1999.90;999.90;;;16.20;99.90;;;;;;5092148;28;20020;-83
2022/07/23 04:52:21;;;;;;;1999.90;999.90;;;16.10;99.90;;;;;;5071966;28;20029;-82
2022/07/23 04:54:47;;;;;;;1999.90;999.90;;;16.10;99.90;;;;;;5091234;28;20394;-82
2022/07/23 04:57:13;;;;;;;1999.90;999.90;;;16.10;99.90;;;;;;5074446;28;20089;-84
2022/07/23 04:59:38;;;;;;;1999.90;999.90;;;16.10;99.90;;;;;;5102668;28;20106;-83
2022/07/23 05:02:04;;;;;;;1999.90;999.90;;;16.00;99.90;;;;;;5065070;28;20028;-83
2022/07/23 05:04:31;;;;;;;1999.90;999.90;;;16.10;99.90;;;;;;5100543;28;20036;-82
2022/07/23 05:06:57;;;;;;;1999.90;999.90;;;16.20;99.90;;;;;;5096455;28;20077;-82
2022/07/23 05:09:23;;;;;;;1999.90;999.90;;;16.10;99.90;;;;;;5079981;28;20055;-83
2022/07/23 05:11:48;;;;;;;1999.90;999.90;;;16.10;99.90;;;;;;5071762;28;20059;-83
2022/07/23 05:14:14;;;;;;;1999.90;999.90;;;16.20;99.90;;;;;;5072838;28;20066;-82
2022/07/23 05:16:40;;;;;;;1999.90;999.90;;;16.30;99.90;;;;;;5094168;28;20063;-82
2022/07/23 05:19:05;;;;;;;1999.90;999.90;;;16.30;99.90;;;;;;5090071;28;20028;-82
2022/07/23 05:21:31;;;;;;;1999.90;999.90;;;16.20;99.90;;;;;;5070189;28;20028;-83
2022/07/23 05:23:57;;;;;;;1999.90;999.90;;;16.20;99.90;;;;;;5091272;28;20479;-83
2022/07/23 05:26:23;;;;;;;1999.90;999.90;;;16.20;99.90;;;;;;5074055;28;20039;-83
2022/07/23 05:28:48;;;;;;;1999.90;999.90;;;16.20;99.90;;;;;;5102025;28;20490;-82
2022/07/23 05:31:14;;;;;;;1999.90;999.90;;;16.20;99.90;;;;;;5067256;28;20028;-84
2022/07/23 05:33:39;;;;;;;1999.90;999.90;;;16.20;99.90;;;;;;5081801;28;20043;-83
2022/07/23 05:36:05;;;;;;;1999.90;999.90;;;16.20;99.90;;;;;;5076578;28;20396;-83
2022/07/23 05:38:32;;;;;;;1999.90;999.90;;;16.20;99.90;;;;;;5090707;28;20089;-82
2022/07/23 05:40:58;;;;;;;1999.90;999.90;;;16.20;99.90;;;;;;5095465;28;20036;-87
2022/07/23 05:43:23;;;;;;;1999.90;999.90;;;16.30;99.90;;;;;;5093628;28;20177;-83
2022/07/23 05:45:49;;;;;;;1999.90;999.90;;;16.30;99.90;;;;;;5078996;28;20031;-83
2022/07/23 05:48:15;;;;;;;1999.90;999.90;;;16.50;99.90;;;;;;5096993;28;20016;-83
2022/07/23 05:50:41;;;;;;;1999.90;999.90;;;16.60;99.90;;;;;;5091209;28;20107;-83
2022/07/23 05:53:07;;;;;;;1999.90;999.90;;;16.60;99.90;;;;;;5073489;28;20043;-82
2022/07/23 05:55:32;;;;;;;1999.90;999.90;;;16.60;99.90;;;;;;5071968;28;20514;-83
2022/07/23 05:57:59;;;;;;;1999.90;999.90;;;16.50;99.90;;;;;;5088306;28;20542;-83
2022/07/23 06:00:26;;;;;;;1999.90;999.90;;;16.50;99.90;;;;;;5082087;28;20551;-83
2022/07/23 06:02:52;;;;;;;1999.90;999.90;;;16.70;99.90;;;;;;5100256;28;20028;-83
2022/07/23 06:05:18;;;;;;;1999.90;999.90;;;16.60;99.90;;;;;;5099767;28;20027;-83
2022/07/23 06:07:43;;;;;;;1999.90;999.90;;;16.60;99.90;;;;;;5093891;28;20633;-83
2022/07/23 06:10:09;;;;;;;1999.90;999.90;;;16.40;99.90;;;;;;5100372;28;20405;-83
2022/07/23 06:12:35;;;;;;;1999.90;999.90;;;16.40;99.90;;;;;;5096070;28;20059;-83
2022/07/23 06:15:01;;;;;;;1999.90;999.90;;;16.70;99.90;;;;;;5079505;28;20048;-83
2022/07/23 06:17:28;;;;;;;1999.90;999.90;;;16.70;99.90;;;;;;5071381;28;20504;-87
2022/07/23 06:19:54;;;;;;;1999.90;999.90;;;16.80;99.90;;;;;;5096547;28;20470;-83
2022/07/23 06:22:20;;;;;;;1999.90;999.90;;;16.80;99.90;;;;;;5085986;28;20028;-82
2022/07/23 06:24:46;;;;;;;1999.90;999.90;;;17.00;99.90;;;;;;5093409;28;20024;-83
2022/07/23 06:27:12;;;;;;;1999.90;999.90;;;17.00;99.90;;;;;;5060979;28;20127;-82
2022/07/23 06:29:40;;;;;;;1999.90;999.90;;;17.10;99.90;;;;;;5073033;28;20034;-84
2022/07/23 06:32:06;;;;;;;1999.90;999.90;;;17.10;99.90;;;;;;5067014;28;20044;-81
2022/07/23 06:34:32;;;;;;;1999.90;999.90;;;16.90;99.90;;;;;;5081729;28;20027;-82
2022/07/23 06:36:58;;;;;;;1999.90;999.90;;;17.20;99.90;;;;;;5083710;28;20674;-82
2022/07/23 06:39:24;;;;;;;1999.90;999.90;;;17.30;99.90;;;;;;5075785;28;20033;-84
2022/07/23 06:41:50;;;;;;;1999.90;999.90;;;17.20;99.90;;;;;;5076076;28;20036;-84
2022/07/23 06:44:16;;;;;;;1999.90;999.90;;;17.30;99.90;;;;;;5079176;28;20023;-83
2022/07/23 06:46:41;;;;;;;1999.90;999.90;;;17.20;99.90;;;;;;5097213;28;20024;-83
2022/07/23 06:49:07;;;;;;;1999.90;999.90;;;17.30;99.90;;;;;;5077947;28;20123;-83
2022/07/23 06:51:33;;;;;;;1999.90;999.90;;;17.20;99.90;;;;;;5090440;28;20210;-83
2022/07/23 06:53:59;;;;;;;1999.90;999.90;;;17.20;99.90;;;;;;5089578;28;20032;-84
2022/07/23 06:56:24;;;;;;;1999.90;999.90;;;17.10;99.90;;;;;;5093468;28;20664;-83
2022/07/23 06:58:50;;;;;;;1999.90;999.90;;;17.20;99.90;;;;;;5082421;28;20027;-83
2022/07/23 07:01:16;;;;;;;1999.90;999.90;;;17.20;99.90;;;;;;5077774;28;20062;-83
2022/07/23 07:03:42;;;;;;;1999.90;999.90;;;17.50;99.90;;;;;;5102826;28;20114;-83
2022/07/23 07:06:07;;;;;;;1999.90;999.90;;;17.60;99.90;;;;;;5100444;28;20483;-85
2022/07/23 07:08:33;;;;;;;1999.90;999.90;;;17.80;99.90;;;;;;5099905;28;20039;-83
2022/07/23 07:10:59;;;;;;;1999.90;999.90;;;17.80;99.90;;;;;;5089892;28;20459;-83
2022/07/23 07:13:24;;;;;;;1999.90;999.90;;;17.90;99.90;;;;;;5059099;28;20046;-83
2022/07/23 07:15:50;;;;;;;1999.90;999.90;;;18.10;99.90;;;;;;5070186;28;20048;-83
2022/07/23 07:18:15;;;;;;;1999.90;999.90;;;18.20;99.90;;;;;;5071082;28;20039;-86
2022/07/23 07:20:41;;;;;;;1999.90;999.90;;;18.30;99.90;;;;;;5093208;28;20024;-84
2022/07/23 07:23:07;;;;;;;1999.90;999.90;;;18.50;99.90;;;;;;5092783;28;20030;-83
2022/07/23 07:25:33;;;;;;;1999.90;999.90;;;18.60;99.90;;;;;;5090606;28;20563;-83
2022/07/23 07:27:58;;;;;;;1999.90;999.90;;;18.80;99.90;;;;;;5101057;28;20046;-83
2022/07/23 07:30:24;;;;;;;1999.90;999.90;;;19.10;99.90;;;;;;5092202;28;20028;-85
2022/07/23 07:32:50;;;;;;;1999.90;999.90;;;19.20;99.90;;;;;;5096740;28;20412;-86
2022/07/23 07:35:15;;;;;;;1999.90;999.90;;;19.30;99.90;;;;;;5096252;28;20491;-82
2022/07/23 07:37:41;;;;;;;1999.90;999.90;;;19.20;99.90;;;;;;5089795;28;20107;-82
2022/07/23 07:40:07;;;;;;;1999.90;999.90;;;19.00;99.90;;;;;;5090600;28;20027;-82
2022/07/23 07:42:33;;;;;;;1999.90;999.90;;;19.20;99.90;;;;;;5089692;28;20136;-84
2022/07/23 07:44:59;;;;;;;1999.90;999.90;;;19.20;99.90;;;;;;5094433;28;20763;-83
2022/07/23 07:47:24;;;;;;;1999.90;999.90;;;19.70;99.90;;;;;;5099049;28;20422;-82
2022/07/23 07:49:50;;;;;;;1999.90;999.90;;;19.80;99.90;;;;;;5091534;28;20505;-83
2022/07/23 07:52:16;;;;;;;1999.90;999.90;;;20.00;99.90;;;;;;5084416;28;20413;-82
2022/07/23 07:54:42;;;;;;;1999.90;999.90;;;20.20;99.90;;;;;;5092384;28;20031;-84
2022/07/23 07:57:08;;;;;;;1999.90;999.90;;;20.20;99.90;;;;;;5098786;28;20035;-82
2022/07/23 07:59:34;;;;;;;1999.90;999.90;;;20.20;99.90;;;;;;5105517;28;20035;-82
2022/07/23 08:01:59;;;;;;;1999.90;999.90;;;20.10;99.90;;;;;;5084432;28;20114;-83
2022/07/23 08:04:25;;;;;;;1999.90;999.90;;;20.00;99.90;;;;;;5087683;28;20050;-82
2022/07/23 08:06:51;;;;;;;1999.90;999.90;;;20.30;99.90;;;;;;5090662;28;20514;-84
2022/07/23 08:09:16;;;;;;;1999.90;999.90;;;20.20;99.90;;;;;;5092865;28;20552;-83
2022/07/23 08:11:42;;;;;;;1999.90;999.90;;;20.20;99.90;;;;;;5093950;28;20644;-82
2022/07/23 08:14:09;;;;;;;1999.90;999.90;;;20.00;99.90;;;;;;5086471;28;20075;-83
2022/07/23 08:16:34;;;;;;;1999.90;999.90;;;20.10;99.90;;;;;;5072759;28;20757;-83
2022/07/23 08:19:00;;;;;;;1999.90;999.90;;;20.00;99.90;;;;;;5086495;28;20039;-84
2022/07/23 08:21:26;;;;;;;1474.13;652.20;;;20.00;99.90;;;;;;5088092;28;20039;-83
2022/07/23 08:23:51;;;;;;;1689.03;816.38;;;20.20;99.90;;;;;;5090836;28;20706;-82
2022/07/23 08:26:17;;;;;;;1999.90;999.90;;;20.30;99.90;;;;;;5093627;28;20035;-83
2022/07/23 08:28:43;;;;;;;1999.90;999.90;;;20.50;99.90;;;;;;5105250;28;20028;-82
2022/07/23 08:31:10;;;;;;;1999.90;999.90;;;20.70;99.90;;;;;;5078190;28;20044;-84
2022/07/23 08:33:36;;;;;;;1999.90;999.90;;;20.50;99.90;;;;;;5097873;28;20044;-83
2022/07/23 08:36:03;;;;;;;1999.90;999.90;;;20.60;99.90;;;;;;5093397;28;20055;-82
2022/07/23 08:38:29;;;;;;;1999.90;999.90;;;20.50;99.90;;;;;;5094643;28;20256;-83
2022/07/23 08:40:57;;;;;;;1999.90;999.90;;;20.50;99.90;;;;;;5094224;28;20501;-83
2022/07/23 08:43:29;;;;;;;1999.90;999.90;;;20.30;99.90;;;;;;5092514;28;20051;-87
2022/07/23 08:45:57;;;;;;;1999.90;999.90;;;20.30;99.90;;;;;;5076689;28;20487;-83
2022/07/23 08:48:28;;;;;;;1999.90;999.90;;;20.20;99.90;;;;;;5082137;28;20028;-82
2022/07/23 08:50:56;;;;;;;1999.90;999.90;;;20.20;99.90;;;;;;5092086;28;20038;-84
2022/07/23 08:53:23;;;;;;;1999.90;999.90;;;20.20;99.90;;;;;;5075717;28;20425;-83
2022/07/23 08:55:52;;;;;;;1999.90;999.90;;;20.20;99.90;;;;;;5072176;28;20131;-82
2022/07/23 08:58:18;;;;;;;1999.90;999.90;;;20.40;99.90;;;;;;5094023;28;20022;-82
2022/07/23 09:00:44;;;;;;;1999.90;999.90;;;20.40;99.90;;;;;;5081527;28;20097;-84
2022/07/23 09:03:22;;;;;;;1992.75;970.00;;;20.40;99.90;;;;;;5093339;28;20028;-82
2022/07/23 09:05:50;;;;;;;1999.90;999.90;;;21.00;99.90;;;;;;5071977;28;20032;-82
2022/07/23 09:08:21;;;;;;;1999.90;999.90;;;21.10;99.90;;;;;;5073002;28;20032;-83
2022/07/23 09:10:53;;;;;;;1999.90;999.90;;;21.70;99.90;;;;;;5091951;28;20120;-81
2022/07/23 09:13:32;;;;;;;1999.90;999.90;;;21.80;99.90;;;;;;5092432;28;20020;-87
2022/07/23 09:16:02;;;;;;;1999.90;999.90;;;22.20;99.90;;;;;;5080383;28;20036;-83
2022/07/23 09:18:34;;;;;;;1999.90;999.90;;;22.30;99.90;;;;;;5090514;28;20055;-82
2022/07/23 09:21:19;;;;;;;1999.90;999.90;;;22.40;99.90;;;;;;5103676;28;20484;-82
2022/07/23 09:23:50;;;;;;;1659.32;792.90;;;22.60;99.20;;;;;;5097094;28;20111;-82
2022/07/23 09:26:29;;;;;;;1999.90;999.90;;;23.10;97.00;;;;;;5101695;28;20302;-82
2022/07/23 09:29:04;;;;;;;1999.90;999.90;;;23.20;98.80;;;;;;5102925;28;20091;-82
2022/07/23 09:31:55;;;;;;;1999.90;999.90;;;23.70;99.90;;;;;;5100862;28;20016;-82
2022/07/23 09:34:22;;;;;;;1999.90;999.90;;;24.00;97.80;;;;;;5070103;28;20763;-82
2022/07/23 09:36:49;;;;;;;1484.55;454.45;;;24.20;96.00;;;;;;5091157;28;20073;-82
2022/07/23 09:39:24;;;;;;;1339.28;508.58;;;24.30;98.50;;;;;;5091681;28;20028;-85
2022/07/23 09:41:49;;;;;;;1606.50;676.55;;;24.00;94.90;;;;;;5091801;28;20024;-91
2022/07/23 09:44:18;;;;;;;1999.90;999.90;;;24.00;96.30;;;;;;5095850;28;20043;-90
2022/07/23 09:46:46;;;;;;;1999.90;999.90;;;24.20;95.50;;;;;;5095503;28;20028;-90
2022/07/23 09:49:16;;;;;;;1671.38;849.83;;;24.60;95.00;;;;;;5092515;28;20538;-86
2022/07/23 09:51:51;;;;;;;1864.32;966.80;;;24.90;92.50;;;;;;5092231;28;20510;-82
2022/07/23 09:54:40;;;;;;;1246.90;606.10;;;24.80;86.60;;;;;;5077428;28;20495;-79
2022/07/23 09:57:14;;;;;;;1999.90;999.90;;;25.00;86.60;;;;;;5069595;28;20056;-79
2022/07/23 09:59:41;;;;;;;1479.47;838.42;;;25.00;91.20;;;;;;5101366;28;20032;-79
2022/07/23 10:02:10;;;;;;;1297.20;643.53;;;24.60;86.50;;;;;;5096513;28;20032;-79
2022/07/23 10:04:36;;;;;;;1999.90;999.90;;;24.90;86.90;;;;;;5071591;28;20083;-82
2022/07/23 10:07:05;;;;;;;1669.55;590.47;;;24.70;89.60;;;;;;5088858;28;20040;-88
2022/07/23 10:09:36;;;;;;;1506.45;573.38;;;24.30;82.50;;;;;;5097527;28;20028;-82
2022/07/23 10:14:48;;;;;;;1999.90;904.30;;;25.40;86.90;;;;;;5095355;28;20043;-82
2022/07/23 10:17:14;;;;;;;1999.90;999.90;;;25.50;79.30;;;;;;5070374;28;20063;-81
2022/07/23 10:19:41;;;;;;;1999.90;999.90;;;25.50;86.30;;;;;;5090819;28;20020;-84
2022/07/23 10:22:11;;;;;;;1693.43;905.35;;;26.20;78.10;;;;;;5090314;28;20817;-84
2022/07/23 10:25:00;;;;;;;1762.38;969.47;;;26.00;79.00;;;;;;5070184;28;20039;-84
2022/07/23 10:27:43;;;;;;;1542.07;964.85;;;26.20;76.60;;;;;;5087515;28;20028;-83
2022/07/23 10:30:11;;;;;;;1834.03;930.95;;;26.70;74.40;;;;;;5101995;28;20034;-84
2022/07/23 10:33:03;;;;;;;1999.90;866.53;;;26.40;74.20;;;;;;5099938;28;20030;-82
2022/07/23 10:35:43;;;;;;;1767.55;896.30;;;26.00;81.90;;;;;;5080370;28;20390;-80
2022/07/23 10:38:12;;;;;;;1643.97;999.90;;;26.50;75.40;;;;;;5090495;28;20025;-81
2022/07/23 10:41:00;;;;;;;1797.22;898.53;;;27.00;74.00;;;;;;5094581;28;20109;-80
2022/07/23 10:43:27;;;;;;;1381.55;585.33;;;27.10;71.40;;;;;;5091166;28;20063;-82
2022/07/23 10:45:53;;;;;;;1995.28;864.17;;;27.00;73.80;;;;;;5091267;28;20028;-80
2022/07/23 10:48:20;;;;;;;1999.90;999.90;;;26.50;66.80;;;;;;5097656;28;20032;-80
2022/07/23 10:51:07;;;;;;;1999.90;999.90;;;26.50;73.70;;;;;;5090937;28;20783;-80
2022/07/23 10:53:51;;;;;;;1999.90;999.90;;;26.90;75.00;;;;;;5083495;28;20008;-80
2022/07/23 10:56:49;;;;;;;1999.90;999.90;;;27.00;71.00;;;;;;5098225;28;20084;-81
2022/07/23 10:59:15;;;;;;;1504.18;619.33;;;26.50;71.20;;;;;;5093903;28;20028;-81
2022/07/23 11:01:40;;;;;;;1949.18;988.78;;;25.80;73.90;;;;;;5097362;28;20050;-80
2022/07/23 11:04:07;;;;;;;1952.85;997.67;;;25.50;72.30;;;;;;5084281;28;20032;-81
2022/07/23 11:06:48;;;;;;;1999.90;999.90;;;25.40;74.30;;;;;;5090578;28;20044;-83
2022/07/23 11:09:24;;;;;;;1999.90;999.90;;;25.30;75.90;;;;;;5096981;28;20043;-80
2022/07/23 11:12:10;;;;;;;1875.65;928.03;;;25.00;78.60;;;;;;5093201;28;20443;-79
2022/07/23 11:15:11;;;;;;;1445.28;644.65;;;25.40;77.20;;;;;;5084385;28;20127;-77
2022/07/23 11:18:00;;;;;;;1948.40;932.35;;;25.50;81.60;;;;;;5087476;28;20099;-78
2022/07/23 11:20:26;;;;;;;1999.90;946.50;;;26.40;74.90;;;;;;5090957;28;20166;-77
2022/07/23 11:22:56;;;;;;;1515.40;998.42;;;27.10;72.50;;;;;;5094601;28;20027;-77
2022/07/23 11:25:21;;;;;;;1956.88;999.90;;;27.40;69.40;;;;;;5087516;28;20024;-82
2022/07/23 11:27:51;;;;;;;1999.90;988.05;;;28.30;66.60;;;;;;5089161;28;20483;-79
2022/07/23 11:30:26;;;;;;;1532.40;991.22;;;28.60;62.50;;;;;;5091713;28;20055;-78
2022/07/23 11:32:52;;;;;;;1896.78;999.90;;;28.50;64.90;;;;;;5080757;28;20035;-81
2022/07/23 11:35:27;;;;;;;1847.82;999.90;;;28.30;64.00;;;;;;5092015;28;20036;-82
2022/07/23 11:38:02;;;;;;;1606.63;999.90;;;27.90;65.00;;;;;;5092988;28;20098;-80
2022/07/23 11:40:27;;;;;;;1999.90;999.90;;;28.70;63.40;;;;;;5073446;28;20059;-81
2022/07/23 11:43:01;;;;;;;1724.90;999.90;;;27.80;66.60;;;;;;5088402;28;20055;-81
2022/07/23 11:45:42;;;;;;;1246.38;997.40;;;27.60;65.40;;;;;;5088244;28;20039;-81
2022/07/23 11:48:15;;;;;;;1781.82;990.83;;;28.10;64.90;;;;;;5088151;28;20042;-80
2022/07/23 11:50:41;;;;;;;1999.90;999.90;;;28.20;63.10;;;;;;5087347;28;20054;-79
2022/07/23 11:53:06;;;;;;;1311.68;999.90;;;28.70;64.60;;;;;;5068264;28;20628;-81
2022/07/23 11:55:32;;;;;;;1585.95;999.90;;;28.30;63.80;;;;;;5105222;28;20620;-80
2022/07/23 11:57:58;;;;;;;1999.68;983.92;;;27.60;65.30;;;;;;5090892;28;20111;-81
2022/07/23 12:00:29;;;;;;;1721.45;761.72;;;26.80;65.40;;;;;;5100841;28;20066;-81
2022/07/23 12:03:05;;;;;;;1999.90;999.90;;;26.50;71.10;;;;;;5063548;28;21057;-82
2022/07/23 12:05:35;;;;;;;1852.75;924.13;;;27.20;66.10;;;;;;5066719;28;20125;-81